Time;durP1;ratioP1;P1;durP2;ratioP2;P2;SDS_P1;SDS_P2;PMS_P1;PMS_P2;Temp;Humidity;BMP_temperature;BMP_pressure;BME280_temperature;BME280_humidity;BME280_pressure;Samples;Min_cycle;Max_cycle;Signal;HPM_P1;HPM_P2
2022/09/06 00:01:43;;;;;;;2.45;2.00;;;;;;;14.38;51.42;100048.89;1761640;81;21500;-48
2022/09/06 00:04:08;;;;;;;3.80;1.90;;;;;;;14.39;51.09;100041.34;1761434;81;21528;-46
2022/09/06 00:06:35;;;;;;;4.35;2.00;;;;;;;14.38;51.28;100044.08;1761355;81;20998;-44
2022/09/06 00:09:01;;;;;;;3.50;2.37;;;;;;;14.37;51.00;100045.00;1761460;81;21026;-47
2022/09/06 00:11:27;;;;;;;5.53;2.10;;;;;;;14.34;51.45;100043.88;1744306;81;20987;-40
2022/09/06 00:13:53;;;;;;;3.10;2.00;;;;;;;14.34;50.87;100041.23;1761513;81;21457;-47
2022/09/06 00:16:23;;;;;;;4.33;1.72;;;;;;;14.32;50.93;100041.80;1761344;81;21607;-40
2022/09/06 00:18:54;;;;;;;3.65;1.95;;;;;;;14.32;50.88;100043.13;1761366;81;20995;-41
2022/09/06 00:21:26;;;;;;;9.03;2.22;;;;;;;14.35;50.48;100041.60;1761401;81;21487;-41
2022/09/06 00:23:52;;;;;;;4.35;2.20;;;;;;;14.32;50.38;100038.68;1761400;81;20983;-44
2022/09/06 00:26:20;;;;;;;3.98;2.10;;;;;;;14.28;50.58;100036.29;1761343;81;20984;-41
2022/09/06 00:28:46;;;;;;;3.98;1.95;;;;;;;14.26;50.68;100039.05;1761569;81;21445;-42
2022/09/06 00:31:20;;;;;;;4.95;2.00;;;;;;;14.21;50.77;100034.02;1761431;81;20995;-43
2022/09/06 00:33:46;;;;;;;7.20;2.33;;;;;;;14.22;50.58;100036.18;1760200;81;20956;-43
2022/09/06 00:36:13;;;;;;;4.58;2.20;;;;;;;14.19;50.92;100033.25;1761352;81;20995;-45
2022/09/06 00:38:39;;;;;;;5.45;2.17;;;;;;;14.15;51.15;100038.80;1761301;81;20999;-42
2022/09/06 00:41:08;;;;;;;4.15;2.05;;;;;;;14.13;51.13;100028.30;1761613;81;20990;-40
2022/09/06 00:43:34;;;;;;;5.47;2.17;;;;;;;14.11;51.21;100030.67;1744301;81;21007;-43
2022/09/06 00:46:01;;;;;;;3.37;2.12;;;;;;;14.08;51.30;100030.84;1761347;81;20998;-40
2022/09/06 00:48:27;;;;;;;5.53;2.67;;;;;;;14.05;51.45;100027.91;1744421;81;21003;-42
2022/09/06 00:50:58;;;;;;;5.22;2.27;;;;;;;13.99;51.69;100027.80;1750043;80;21533;-42
2022/09/06 00:53:25;;;;;;;2.95;2.02;;;;;;;13.98;51.47;100031.85;1748074;81;21501;-42
2022/09/06 00:55:51;;;;;;;5.37;2.42;;;;;;;13.95;51.28;100028.05;1748148;81;21027;-42
2022/09/06 00:58:17;;;;;;;9.35;2.60;;;;;;;13.89;52.07;100027.94;1748132;82;20995;-43
2022/09/06 01:00:43;;;;;;;7.78;2.58;;;;;;;13.85;52.59;100026.90;1747985;82;21030;-43
2022/09/06 01:03:10;;;;;;;3.62;2.40;;;;;;;13.85;51.83;100029.55;1747995;81;21019;-44
2022/09/06 01:06:20;;;;;;;4.10;2.30;;;;;;;13.81;52.38;100028.86;1748240;82;20995;-40
2022/09/06 01:08:55;;;;;;;6.37;2.15;;;;;;;13.79;52.09;100031.59;1731542;82;21035;-42
2022/09/06 01:12:02;;;;;;;9.03;2.77;;;;;;;13.73;52.82;100032.40;1747929;81;20979;-44
2022/09/06 01:14:42;;;;;;;3.10;2.10;;;;;;;13.68;52.86;100031.80;1748023;81;20992;-42
2022/09/06 01:17:31;;;;;;;6.35;2.35;;;;;;;13.63;53.37;100038.20;1747804;81;21498;-39
2022/09/06 01:20:31;;;;;;;3.50;2.72;;;;;;;13.57;53.56;100033.27;1747361;81;21024;-46
2022/09/06 01:23:35;;;;;;;6.03;2.37;;;;;;;13.60;53.33;100042.80;1747973;81;20997;-43
2022/09/06 01:26:39;;;;;;;6.20;2.92;;;;;;;13.57;53.14;100035.04;1746993;81;20968;-42
2022/09/06 01:29:13;;;;;;;6.08;2.95;;;;;;;13.53;53.28;100049.38;1747955;82;20996;-37
2022/09/06 01:31:47;;;;;;;6.53;3.40;;;;;;;13.49;53.55;100050.01;1746598;81;21438;-39
2022/09/06 01:34:27;;;;;;;9.00;3.12;;;;;;;13.43;53.75;100039.31;1747663;81;21540;-42
2022/09/06 01:37:07;;;;;;;8.85;2.92;;;;;;;13.36;53.96;100037.94;1747288;81;20960;-38
2022/09/06 01:39:35;;;;;;;7.03;3.25;;;;;;;13.35;54.15;100029.66;1747942;81;21465;-46
2022/09/06 01:42:23;;;;;;;4.60;3.10;;;;;;;13.30;54.28;100032.97;1747938;82;20980;-41
2022/09/06 01:45:03;;;;;;;4.85;3.05;;;;;;;13.24;54.57;100028.01;1748060;81;21500;-41
2022/09/06 01:47:57;;;;;;;8.38;3.72;;;;;;;13.22;54.59;100027.25;1747982;81;20972;-44
2022/09/06 01:50:46;;;;;;;10.35;3.30;;;;;;;13.20;54.62;100026.48;1755003;80;21015;-41
2022/09/06 01:53:49;;;;;;;8.30;3.42;;;;;;;13.20;54.36;100027.32;1761320;80;20995;-45
2022/09/06 01:56:44;;;;;;;9.83;3.52;;;;;;;13.17;54.91;100018.71;1761403;81;20963;-43
2022/09/06 01:59:39;;;;;;;5.08;3.42;;;;;;;13.19;54.27;100022.15;1761036;81;21509;-41
2022/09/06 02:02:19;;;;;;;9.20;3.80;;;;;;;13.17;54.69;100022.67;1760297;81;20987;-40
2022/09/06 02:05:03;;;;;;;7.00;3.22;;;;;;;13.12;54.51;100019.45;1761316;81;21042;-43
2022/09/06 02:07:32;;;;;;;9.40;3.55;;;;;;;13.09;54.80;100020.45;1761295;81;21150;-41
2022/09/06 02:10:13;;;;;;;11.63;3.12;;;;;;;13.06;54.68;100024.13;1761395;81;21517;-41
2022/09/06 02:12:42;;;;;;;6.65;3.20;;;;;;;13.06;54.92;100022.80;1761166;81;21516;-38
2022/09/06 02:15:16;;;;;;;11.08;3.50;;;;;;;13.05;54.95;100019.77;1761510;81;21484;-40
2022/09/06 02:17:47;;;;;;;5.53;3.30;;;;;;;13.06;54.98;100017.53;1761648;81;20994;-42
2022/09/06 02:20:18;;;;;;;5.65;2.70;;;;;;;13.06;55.05;100017.53;1761175;81;21528;-38
2022/09/06 02:22:47;;;;;;;6.40;3.10;;;;;;;13.06;54.75;100020.61;1761350;81;20976;-36
2022/09/06 02:25:23;;;;;;;5.53;3.17;;;;;;;13.03;54.90;100015.52;1761404;81;20984;-39
2022/09/06 02:27:49;;;;;;;5.83;3.57;;;;;;;12.99;55.08;100018.79;1756385;80;20991;-41
2022/09/06 02:30:15;;;;;;;5.95;3.00;;;;;;;13.00;54.82;100021.80;1761506;81;21504;-37
2022/09/06 02:32:56;;;;;;;8.53;3.02;;;;;;;12.96;55.19;100018.10;1761490;81;20982;-38
2022/09/06 02:35:22;;;;;;;7.58;3.22;;;;;;;12.94;55.54;100013.37;1760655;80;21038;-40
2022/09/06 02:37:48;;;;;;;7.65;2.92;;;;;;;12.93;55.32;100015.14;1761575;81;21046;-38
2022/09/06 02:43:10;;;;;;;7.90;3.60;;;;;;;12.87;56.01;100018.96;1758771;79;21052;-44
2022/09/06 02:45:36;;;;;;;9.48;3.40;;;;;;;12.82;55.94;100016.19;1761297;81;20960;-38
2022/09/06 02:48:02;;;;;;;5.50;3.17;;;;;;;12.80;55.62;100012.78;1761089;81;20988;-40
2022/09/06 02:50:28;;;;;;;7.42;3.50;;;;;;;12.77;55.97;100016.89;1761276;81;21004;-41
2022/09/06 02:53:08;;;;;;;6.70;3.35;;;;;;;12.76;56.01;100012.09;1761215;81;20972;-37
2022/09/06 02:55:34;;;;;;;8.40;3.50;;;;;;;12.72;56.52;100013.67;1760158;81;21043;-41
2022/09/06 02:58:00;;;;;;;5.90;3.22;;;;;;;12.71;56.72;100007.98;1761529;81;21032;-42
2022/09/06 03:00:27;;;;;;;5.67;2.92;;;;;;;12.71;56.58;100015.43;1761252;81;21024;-39
2022/09/06 03:02:54;;;;;;;11.50;3.40;;;;;;;12.71;56.44;100016.75;1761341;81;20956;-43
2022/09/06 03:05:24;;;;;;;9.53;4.03;;;;;;;12.69;56.81;100013.34;1761470;81;21527;-41
2022/09/06 03:07:51;;;;;;;5.80;3.65;;;;;;;12.65;56.73;100006.05;1761260;81;20987;-38
2022/09/06 03:10:19;;;;;;;9.28;3.40;;;;;;;12.61;57.09;100004.98;1761293;81;21480;-41
2022/09/06 03:12:45;;;;;;;7.95;3.22;;;;;;;12.60;56.87;100003.27;1761271;81;20987;-39
2022/09/06 03:15:13;;;;;;;11.80;3.62;;;;;;;12.54;57.06;100002.28;1761274;81;20992;-42
2022/09/06 03:17:40;;;;;;;12.55;3.95;;;;;;;12.52;57.32;100002.36;1761161;81;21626;-41
2022/09/06 03:20:08;;;;;;;5.42;3.60;;;;;;;12.51;56.97;99999.32;1761483;81;21465;-37
2022/09/06 03:22:38;;;;;;;10.72;3.70;;;;;;;12.46;57.16;99998.26;1761263;81;21537;-36
2022/09/06 03:25:06;;;;;;;10.15;3.83;;;;;;;12.46;57.11;100000.02;1761267;81;21004;-43
2022/09/06 03:27:32;;;;;;;9.45;4.00;;;;;;;12.44;57.49;99996.61;1761180;81;21016;-38
2022/09/06 03:29:58;;;;;;;6.15;3.42;;;;;;;12.42;57.35;99995.84;1761254;81;20997;-38
2022/09/06 03:32:23;;;;;;;13.05;3.90;;;;;;;12.40;57.45;99991.12;1761318;81;21589;-42
2022/09/06 03:34:49;;;;;;;6.90;3.65;;;;;;;12.39;57.84;99989.43;1761310;81;20964;-43
2022/09/06 03:37:15;;;;;;;6.97;3.55;;;;;;;12.38;56.91;99989.03;1761328;81;20992;-43
2022/09/06 03:39:41;;;;;;;6.78;3.27;;;;;;;12.35;58.24;99994.45;1761207;81;20988;-42
2022/09/06 03:42:07;;;;;;;10.23;3.95;;;;;;;12.34;57.96;99984.85;1761088;81;21013;-41
2022/09/06 03:44:33;;;;;;;9.25;4.00;;;;;;;12.29;57.65;99988.55;1761151;81;21434;-39
2022/09/06 03:46:58;;;;;;;8.10;3.85;;;;;;;12.30;57.87;99992.06;1761195;81;21008;-42
2022/09/06 03:49:24;;;;;;;7.28;3.87;;;;;;;12.29;58.13;99992.51;1761257;81;21470;-39
2022/09/06 03:51:50;;;;;;;13.08;3.67;;;;;;;12.27;58.01;99998.33;1761281;81;20964;-39
2022/09/06 03:54:16;;;;;;;7.78;4.15;;;;;;;12.25;57.90;99998.03;1761301;81;21588;-44
2022/09/06 03:56:41;;;;;;;9.63;4.10;;;;;;;12.21;58.48;99999.13;1761238;81;21513;-38
2022/09/06 03:59:07;;;;;;;12.15;3.87;;;;;;;12.17;58.80;100001.07;1761159;81;21533;-40
2022/09/06 04:01:33;;;;;;;8.53;3.60;;;;;;;12.14;58.45;99990.67;1761315;81;21465;-40
2022/09/06 04:04:00;;;;;;;8.85;4.08;;;;;;;12.15;58.53;99992.83;1761270;81;20989;-39
2022/09/06 04:06:27;;;;;;;9.77;3.87;;;;;;;12.13;58.86;99993.37;1761569;81;20989;-39
2022/09/06 04:08:53;;;;;;;8.60;3.67;;;;;;;12.12;59.19;99993.01;1744660;81;21032;-40
2022/09/06 04:11:19;;;;;;;12.55;4.28;;;;;;;12.10;59.24;99987.33;1741998;82;20988;-40
2022/09/06 04:13:45;;;;;;;9.38;3.90;;;;;;;12.07;59.39;99986.63;1741905;81;21024;-47
2022/09/06 04:16:11;;;;;;;8.53;4.08;;;;;;;12.04;60.23;99987.66;1741965;81;20992;-41
2022/09/06 04:18:36;;;;;;;7.05;4.08;;;;;;;12.03;60.26;99989.89;1741953;81;20969;-43
2022/09/06 04:21:03;;;;;;;9.33;3.55;;;;;;;12.02;59.96;99988.17;1741952;82;20991;-42
2022/09/06 04:23:29;;;;;;;6.33;3.72;;;;;;;12.02;59.38;99988.64;1741965;82;21031;-43
2022/09/06 04:25:57;;;;;;;5.58;3.50;;;;;;;12.01;59.93;99983.00;1742106;82;21506;-42
2022/09/06 04:28:25;;;;;;;10.40;3.77;;;;;;;12.04;59.37;99981.51;1741857;82;21013;-44
2022/09/06 04:30:56;;;;;;;;;;;;;;;12.04;59.70;99984.14;1744646;81;21004;-44
2022/09/06 04:33:25;;;;;;;12.95;3.65;;;;;;;12.03;61.15;99986.41;1741213;81;20098;-39
2022/09/06 04:35:57;;;;;;;11.80;4.53;;;;;;;12.04;59.70;99992.05;1741838;81;21006;-39
2022/09/06 04:38:29;;;;;;;12.80;4.10;;;;;;;12.02;59.64;99988.17;1742043;82;21466;-44
2022/09/06 04:40:55;;;;;;;11.10;4.75;;;;;;;12.02;59.61;99989.96;1741929;82;21000;-42
2022/09/06 04:43:22;;;;;;;7.87;4.37;;;;;;;12.03;59.64;99991.69;1735767;82;20969;-46
2022/09/06 04:45:48;;;;;;;10.60;3.58;;;;;;;12.04;60.46;99988.09;1735238;81;21541;-40
2022/09/06 04:48:14;;;;;;;12.00;4.42;;;;;;;12.06;59.71;99992.83;1733175;81;21007;-46
2022/09/06 04:50:40;;;;;;;14.40;4.45;;;;;;;12.06;59.92;99992.83;1731804;82;21036;-44
2022/09/06 04:53:06;;;;;;;7.72;4.20;;;;;;;12.05;59.89;99989.81;1731792;81;20970;-40
2022/09/06 04:55:33;;;;;;;9.65;4.12;;;;;;;12.06;59.99;99988.87;1731575;82;21017;-43
2022/09/06 04:57:59;;;;;;;10.07;4.07;;;;;;;12.07;60.08;99985.31;1733636;82;20996;-40
2022/09/06 05:00:27;;;;;;;13.23;4.70;;;;;;;12.06;60.07;99982.28;1736881;82;21036;-42
2022/09/06 05:02:54;;;;;;;9.35;4.40;;;;;;;12.08;59.83;99988.36;1736520;82;21158;-42
2022/09/06 05:05:21;;;;;;;9.83;4.72;;;;;;;12.09;59.80;99990.88;1732574;81;21052;-40
2022/09/06 05:07:49;;;;;;;9.05;4.92;;;;;;;12.11;59.83;99985.55;1732398;82;21510;-44
2022/09/06 05:10:15;;;;;;;9.58;5.03;;;;;;;12.10;59.42;99989.97;1734384;82;20976;-45
2022/09/06 05:12:41;;;;;;;9.73;5.08;;;;;;;12.13;59.93;99988.95;1732214;83;21493;-40
2022/09/06 05:15:08;;;;;;;10.23;5.40;;;;;;;12.15;59.50;99991.07;1737291;82;20985;-42
2022/09/06 05:17:34;;;;;;;16.27;4.87;;;;;;;12.18;59.59;99988.73;1734362;82;20996;-38
2022/09/06 05:20:00;;;;;;;11.15;5.20;;;;;;;12.18;59.64;99985.62;1732252;83;21041;-45
2022/09/06 05:22:25;;;;;;;13.13;4.75;;;;;;;12.20;59.46;99990.34;1736889;82;20957;-42
2022/09/06 05:24:51;;;;;;;10.80;4.80;;;;;;;12.24;59.26;99995.00;1732920;81;21000;-41
2022/09/06 05:27:17;;;;;;;11.03;4.40;;;;;;;12.23;59.45;99986.24;1732629;82;20973;-44
2022/09/06 05:29:43;;;;;;;12.73;5.00;;;;;;;12.29;60.07;99991.66;1733967;82;20988;-43
2022/09/06 05:32:09;;;;;;;9.30;4.45;;;;;;;12.30;60.22;99999.98;1734818;81;21024;-44
2022/09/06 05:34:34;;;;;;;10.58;4.78;;;;;;;12.31;59.34;100002.98;1737100;82;21044;-43
2022/09/06 05:37:00;;;;;;;15.63;4.65;;;;;;;12.34;59.21;100002.84;1737055;82;20969;-39
2022/09/06 05:39:26;;;;;;;16.02;4.80;;;;;;;12.37;59.30;100002.69;1737284;82;20985;-46
2022/09/06 05:41:52;;;;;;;12.68;5.12;;;;;;;12.40;59.51;100004.30;1737486;82;21040;-43
2022/09/06 05:44:17;;;;;;;10.32;4.65;;;;;;;12.43;59.10;100006.80;1742161;81;21478;-40
2022/09/06 05:46:44;;;;;;;8.90;4.50;;;;;;;12.45;58.82;100000.97;1743483;81;21442;-38
2022/09/06 05:49:12;;;;;;;16.93;4.72;;;;;;;12.47;58.73;100005.70;1742408;81;21501;-45
2022/09/06 05:51:39;;;;;;;13.15;4.53;;;;;;;12.51;58.72;100002.44;1744291;81;21032;-42
2022/09/06 05:54:06;;;;;;;15.55;4.28;;;;;;;12.54;58.87;100000.49;1741799;82;21003;-42
2022/09/06 05:56:32;;;;;;;15.60;4.42;;;;;;;12.58;58.89;99999.39;1741788;81;20965;-37
2022/09/06 05:58:58;;;;;;;6.87;4.15;;;;;;;12.60;58.66;99998.84;1741669;82;21457;-43
2022/09/06 06:01:28;;;;;;;10.90;4.15;;;;;;;12.62;58.40;99990.84;1741689;82;21481;-46
2022/09/06 06:03:57;;;;;;;14.75;4.58;;;;;;;12.66;58.15;99989.74;1741629;81;21040;-40
2022/09/06 06:06:26;;;;;;;8.08;4.08;;;;;;;12.71;58.52;99992.16;1742782;81;21047;-41
2022/09/06 06:08:52;;;;;;;8.48;3.90;;;;;;;12.74;58.04;99994.16;1742734;81;21027;-40
2022/09/06 06:11:18;;;;;;;13.13;3.85;;;;;;;12.79;58.34;99993.94;1742701;81;20952;-42
2022/09/06 06:13:44;;;;;;;7.13;3.13;;;;;;;12.83;57.92;99992.35;1735767;82;21023;-47
2022/09/06 06:16:14;;;;;;;14.68;4.25;;;;;;;12.87;57.92;99994.36;1744485;81;20992;-40
2022/09/06 06:18:40;;;;;;;7.33;3.90;;;;;;;12.93;58.22;99994.02;1741834;81;21527;-42
2022/09/06 06:21:17;;;;;;;18.07;3.98;;;;;;;12.96;57.98;99995.19;1741621;81;21528;-47
2022/09/06 06:23:45;;;;;;;7.45;3.90;;;;;;;13.01;57.83;100003.72;1743673;81;21013;-42
2022/09/06 06:26:12;;;;;;;7.00;3.35;;;;;;;13.05;58.02;100005.72;1744251;81;21461;-43
2022/09/06 06:28:38;;;;;;;18.65;4.53;;;;;;;13.10;58.16;100005.45;1743398;82;21036;-43
2022/09/06 06:31:07;;;;;;;12.53;4.42;;;;;;;13.14;58.12;100008.34;1741998;82;21019;-45
2022/09/06 06:33:33;;;;;;;16.55;4.62;;;;;;;13.19;57.89;100008.47;1741639;81;21008;-41
2022/09/06 06:36:02;;;;;;;9.53;4.05;;;;;;;13.24;58.14;100004.23;1743692;82;21047;-44
2022/09/06 06:38:36;;;;;;;15.08;4.33;;;;;;;13.28;58.11;100001.83;1743118;81;21370;-45
2022/09/06 06:41:04;;;;;;;21.60;4.62;;;;;;;13.31;58.11;100001.67;1741671;82;21012;-39
2022/09/06 06:43:35;;;;;;;11.85;4.45;;;;;;;13.35;58.15;100012.92;1735788;82;21569;-38
2022/09/06 06:45:57;;;;;;;14.50;4.03;;;;;;;13.41;58.58;100012.12;1731952;82;21157;-41
2022/09/06 06:48:23;;;;;;;9.18;4.08;;;;;;;13.43;58.57;100011.57;1732309;81;21525;-42
2022/09/06 06:50:49;;;;;;;13.85;3.85;;;;;;;13.47;58.33;100012.25;1732336;81;21497;-45
2022/09/06 06:53:15;;;;;;;11.48;4.58;;;;;;;13.52;58.25;100010.69;1733960;82;20969;-45
2022/09/06 06:55:47;;;;;;;10.05;4.33;;;;;;;13.54;58.67;100007.01;1733900;82;21032;-43
2022/09/06 06:58:15;;;;;;;15.48;4.58;;;;;;;13.61;58.61;100010.17;1732284;82;21044;-44
2022/09/06 07:00:42;;;;;;;13.15;3.83;;;;;;;13.65;58.36;100009.05;1732031;82;21036;-46
2022/09/06 07:03:09;;;;;;;14.25;4.20;;;;;;;13.70;58.32;100004.80;1735648;81;21008;-46
2022/09/06 07:05:37;;;;;;;14.98;4.12;;;;;;;13.75;58.26;100011.56;1732566;81;20984;-43
2022/09/06 07:08:05;;;;;;;7.15;4.00;;;;;;;13.82;58.06;100010.72;1731506;81;21005;-44
2022/09/06 07:10:32;;;;;;;13.13;4.03;;;;;;;13.88;57.92;100011.71;1745482;81;21015;-41
2022/09/06 07:12:58;;;;;;;10.38;4.00;;;;;;;13.95;57.84;100025.41;1755444;81;21497;-42
2022/09/06 07:15:24;;;;;;;9.80;3.50;;;;;;;14.02;57.50;100024.12;1744881;81;20976;-37
2022/09/06 07:17:51;;;;;;;5.92;3.30;;;;;;;14.07;57.29;100020.74;1768799;81;21481;-41
2022/09/06 07:20:19;;;;;;;7.72;3.42;;;;;;;14.13;57.39;100023.50;1768658;81;21529;-48
2022/09/06 07:22:45;;;;;;;8.40;3.45;;;;;;;14.18;56.95;100025.41;1768885;80;21031;-40
2022/09/06 07:25:12;;;;;;;11.38;3.62;;;;;;;14.25;57.00;100023.27;1768623;80;20992;-40
2022/09/06 07:27:39;;;;;;;13.32;3.60;;;;;;;14.31;56.91;100025.53;1768589;81;21000;-38
2022/09/06 07:30:06;;;;;;;15.98;4.00;;;;;;;14.34;56.68;100024.04;1768744;81;21457;-42
2022/09/06 07:32:35;;;;;;;15.75;3.67;;;;;;;14.41;56.71;100021.41;1768842;81;20964;-43
2022/09/06 07:35:01;;;;;;;6.15;3.50;;;;;;;14.48;56.55;100021.88;1753283;81;20956;-42
2022/09/06 07:37:26;;;;;;;8.00;2.80;;;;;;;14.55;56.39;100017.47;1740096;81;21505;-38
2022/09/06 07:39:52;;;;;;;18.70;3.37;;;;;;;14.63;56.01;100018.36;1750452;81;21481;-44
2022/09/06 07:42:18;;;;;;;20.40;3.95;;;;;;;14.69;55.83;100017.13;1743941;81;21459;-40
2022/09/06 07:44:44;;;;;;;10.10;3.80;;;;;;;14.76;55.75;100020.63;1732927;83;21056;-43
2022/09/06 07:47:11;;;;;;;5.62;2.95;;;;;;;14.85;55.33;100026.32;1733094;82;20991;-39
2022/09/06 07:49:37;;;;;;;4.37;2.50;;;;;;;14.93;55.09;100026.20;1733324;83;21004;-37
2022/09/06 07:52:03;;;;;;;7.50;3.17;;;;;;;15.02;54.97;100021.30;1733180;83;20996;-42
2022/09/06 07:54:29;;;;;;;12.47;2.50;;;;;;;15.09;54.56;100021.30;1733322;82;21457;-39
2022/09/06 07:56:56;;;;;;;4.22;2.40;;;;;;;15.16;54.41;100021.29;1759177;81;21051;-47
2022/09/06 07:59:22;;;;;;;17.32;2.30;;;;;;;15.23;54.36;100026.58;1761945;81;21050;-39
2022/09/06 08:01:48;;;;;;;6.58;2.42;;;;;;;15.30;54.02;100029.22;1745245;80;20985;-41
2022/09/06 08:04:14;;;;;;;5.90;2.60;;;;;;;15.38;54.04;100019.94;1763564;81;20991;-45
2022/09/06 08:06:45;;;;;;;11.05;2.75;;;;;;;15.44;53.98;100018.21;1763555;81;20996;-44
2022/09/06 08:09:11;;;;;;;21.23;2.72;;;;;;;15.50;53.78;100019.16;1746579;81;20996;-44
2022/09/06 08:11:38;;;;;;;7.45;2.45;;;;;;;15.58;53.73;100015.52;1745965;80;20984;-47
2022/09/06 08:14:06;;;;;;;13.30;2.65;;;;;;;15.65;53.26;100020.81;1748879;81;21109;-45
2022/09/06 08:16:35;;;;;;;7.37;2.40;;;;;;;15.72;53.10;100022.11;1742727;81;20968;-43
2022/09/06 08:19:07;;;;;;;7.47;2.30;;;;;;;15.79;52.95;100017.76;1739531;81;21489;-42
2022/09/06 08:21:33;;;;;;;10.58;2.77;;;;;;;15.84;52.84;100020.48;1720354;83;20979;-43
2022/09/06 08:24:03;;;;;;;4.55;2.70;;;;;;;15.91;52.88;100021.78;1720030;83;20990;-42
2022/09/06 08:26:32;;;;;;;8.80;2.40;;;;;;;15.96;52.90;100021.49;1720244;83;20944;-40
2022/09/06 08:29:05;;;;;;;7.62;2.33;;;;;;;16.02;52.20;100018.91;1720214;83;20991;-41
2022/09/06 08:31:33;;;;;;;8.85;2.35;;;;;;;16.09;52.45;100018.88;1720608;83;21018;-41
2022/09/06 08:33:59;;;;;;;;;;;;;;;16.17;52.35;100011.72;1723127;83;21519;-39
2022/09/06 08:36:28;;;;;;;6.42;2.10;;;;;;;16.22;50.80;100014.92;1720470;83;20128;-39
2022/09/06 08:38:55;;;;;;;4.58;1.90;;;;;;;16.31;51.73;100019.12;1720205;83;21035;-42
2022/09/06 08:42:00;;;;;;;4.42;2.22;;;;;;;16.39;51.70;100018.62;1720427;83;20959;-45
2022/09/06 08:44:47;;;;;;;10.88;2.15;;;;;;;16.49;51.87;100017.02;1720113;83;21522;-47
2022/09/06 08:47:15;;;;;;;5.92;2.30;;;;;;;16.58;51.52;100010.72;1720379;83;21594;-37
2022/09/06 08:49:45;;;;;;;8.80;2.70;;;;;;;16.68;51.64;100013.09;1720329;83;20987;-38
2022/09/06 08:52:43;;;;;;;5.22;2.70;;;;;;;16.80;51.55;100013.58;1719681;82;21474;-43
2022/09/06 08:55:42;;;;;;;119.72;10.53;;;;;;;16.91;51.10;100009.36;1704098;82;20999;-40
2022/09/06 08:58:34;;;;;;;6.92;3.02;;;;;;;17.04;51.33;100003.55;1734947;82;21559;-40
2022/09/06 09:01:05;;;;;;;17.48;3.17;;;;;;;17.19;49.99;100006.45;1735012;81;21480;-42
2022/09/06 09:03:36;;;;;;;7.50;2.52;;;;;;;17.37;50.20;100007.41;1734768;83;20988;-41
2022/09/06 09:06:05;;;;;;;7.80;3.15;;;;;;;17.56;49.50;100004.28;1734956;83;21094;-41
2022/09/06 09:09:07;;;;;;;8.18;3.15;;;;;;;17.74;48.40;100000.75;1735109;82;21047;-41
2022/09/06 09:11:34;;;;;;;6.12;3.25;;;;;;;17.95;47.98;99993.84;1735140;82;20979;-42
2022/09/06 09:14:18;;;;;;;13.55;3.12;;;;;;;18.26;48.56;99995.52;1735310;83;21448;-42
2022/09/06 09:16:44;;;;;;;7.03;2.90;;;;;;;18.64;47.95;99988.22;1734505;82;20968;-38
2022/09/06 09:19:10;;;;;;;13.60;3.45;;;;;;;19.40;48.07;99981.30;1735379;82;21492;-41
2022/09/06 09:21:41;;;;;;;10.58;3.20;;;;;;;20.09;46.53;99982.79;1735106;83;21492;-39
2022/09/06 09:24:10;;;;;;;10.30;4.15;;;;;;;20.75;46.02;99983.84;1734965;81;21517;-41
2022/09/06 09:27:04;;;;;;;6.15;2.77;;;;;;;21.28;43.39;99983.64;1734750;83;20980;-37
2022/09/06 09:29:30;;;;;;;5.65;3.12;;;;;;;21.84;42.94;99987.53;1735063;82;21067;-41
2022/09/06 09:31:56;;;;;;;14.80;2.62;;;;;;;22.43;42.37;99978.16;1734996;82;21016;-42
2022/09/06 09:34:35;;;;;;;4.67;2.17;;;;;;;22.83;41.11;99976.18;1754820;81;20964;-40
2022/09/06 09:37:18;;;;;;;4.30;2.35;;;;;;;23.30;40.18;99968.95;1734331;81;20999;-42
2022/09/06 09:39:47;;;;;;;4.55;2.50;;;;;;;23.88;39.00;99966.34;1730770;83;21066;-44
2022/09/06 09:42:24;;;;;;;8.68;2.95;;;;;;;24.48;37.71;99961.58;1730942;82;20975;-44
2022/09/06 09:44:50;;;;;;;8.63;2.47;;;;;;;24.91;35.95;99962.53;1724255;82;21537;-40
2022/09/06 09:47:31;;;;;;;6.33;1.90;;;;;;;25.47;34.14;99964.27;1741330;81;22140;-43
2022/09/06 09:49:59;;;;;;;3.77;1.87;;;;;;;26.04;32.83;99955.42;1733230;82;22258;-45
2022/09/06 09:52:31;;;;;;;5.97;2.08;;;;;;;26.49;32.26;99951.84;1738904;81;21481;-44
2022/09/06 09:55:04;;;;;;;2.90;2.17;;;;;;;26.59;30.16;99951.63;1746609;81;20988;-40
2022/09/06 09:57:35;;;;;;;15.18;2.80;;;;;;;27.14;30.42;99940.48;1729740;83;21020;-42
2022/09/06 10:00:01;;;;;;;6.40;1.60;;;;;;;27.29;27.07;99943.33;1727782;82;21003;-39
2022/09/06 10:02:30;;;;;;;9.68;1.82;;;;;;;27.58;28.00;99948.88;1730186;82;21063;-43
2022/09/06 10:05:08;;;;;;;6.08;1.52;;;;;;;28.09;28.48;99940.75;1723504;82;21000;-41
2022/09/06 10:07:44;;;;;;;6.20;1.67;;;;;;;28.45;28.28;99946.80;1732269;81;21052;-42
2022/09/06 10:10:33;;;;;;;20.30;3.10;;;;;;;28.73;27.07;99938.09;1730993;81;21519;-44
2022/09/06 10:13:25;;;;;;;4.22;1.90;;;;;;;28.90;26.96;99935.48;1729477;82;21103;-42
2022/09/06 10:15:53;;;;;;;16.93;2.62;;;;;;;29.20;26.15;99936.32;1729981;83;21560;-44
2022/09/06 10:18:41;;;;;;;4.20;1.80;;;;;;;29.39;25.51;99932.67;1729542;83;20988;-41
2022/09/06 10:21:17;;;;;;;4.22;1.47;;;;;;;29.50;25.34;99931.33;1728249;81;21509;-42
2022/09/06 10:23:58;;;;;;;;;;;;;;;29.72;25.04;99927.57;1736153;81;21419;-40
2022/09/06 10:26:49;;;;;;;4.42;1.37;;;;;;;29.58;22.54;99931.18;1721919;83;20108;-42
2022/09/06 10:29:42;;;;;;;3.95;1.20;;;;;;;30.32;24.78;99922.66;1727562;83;20988;-39
2022/09/06 10:32:48;;;;;;;5.97;1.12;;;;;;;30.79;23.91;99920.25;1720692;83;20980;-41
2022/09/06 10:35:31;;;;;;;2.08;0.78;;;;;;;30.53;22.94;99920.44;1723410;82;22053;-39
2022/09/06 10:38:37;;;;;;;1.25;0.80;;;;;;;30.71;22.40;99929.41;1729781;83;21525;-42
2022/09/06 10:41:32;;;;;;;1.95;0.80;;;;;;;30.96;22.75;99928.42;1730011;83;21545;-38
2022/09/06 10:44:44;;;;;;;2.75;1.10;;;;;;;31.12;21.19;99914.98;1682893;85;21076;-37
2022/09/06 10:47:13;;;;;;;1.85;1.52;;;;;;;31.17;21.53;99930.16;1670401;85;21038;-40
2022/09/06 10:49:44;;;;;;;3.10;1.30;;;;;;;31.16;21.60;99918.13;1681540;85;21019;-41
2022/09/06 10:52:15;;;;;;;1.42;1.10;;;;;;;31.34;20.64;99919.73;1666106;85;21092;-39
2022/09/06 10:54:45;;;;;;;8.20;2.08;;;;;;;31.55;21.09;99916.06;1660463;85;20982;-45
2022/09/06 10:57:25;;;;;;;3.17;1.40;;;;;;;31.70;21.01;99917.23;1672609;85;21049;-52
2022/09/06 10:59:56;;;;;;;2.12;0.95;;;;;;;32.14;20.90;99913.09;1692820;84;20960;-40
2022/09/06 11:02:48;;;;;;;1.87;1.07;;;;;;;32.19;19.72;99918.42;1702995;84;20979;-39
2022/09/06 11:05:28;;;;;;;1.82;1.00;;;;;;;32.35;19.92;99917.97;1713040;82;20991;-39
2022/09/06 11:08:00;;;;;;;1.40;1.25;;;;;;;32.23;19.82;99916.41;1708386;84;21003;-41
2022/09/06 11:10:30;;;;;;;5.65;1.07;;;;;;;32.67;20.00;99912.17;1702765;84;20988;-40
2022/09/06 11:13:16;;;;;;;8.73;0.90;;;;;;;33.02;19.03;99914.55;1702806;84;21200;-41
2022/09/06 11:16:10;;;;;;;2.72;1.10;;;;;;;33.06;18.68;99917.67;1706449;84;20956;-39
2022/09/06 11:18:56;;;;;;;2.52;0.93;;;;;;;32.81;18.66;99915.67;1711116;83;21477;-38
2022/09/06 11:21:47;;;;;;;3.72;1.47;;;;;;;31.95;19.05;99909.82;1745855;81;21426;-42
2022/09/06 11:24:21;;;;;;;2.10;1.10;;;;;;;32.39;18.70;99917.85;1744946;81;21035;-43
2022/09/06 11:27:01;;;;;;;1.47;1.20;;;;;;;33.00;19.46;99913.92;1745809;81;20980;-46
2022/09/06 11:29:29;;;;;;;3.35;1.30;;;;;;;33.50;19.68;99909.69;1745771;81;20972;-41
2022/09/06 11:32:00;;;;;;;1.47;1.10;;;;;;;33.73;17.97;99912.70;1745426;82;21031;-43
2022/09/06 11:34:36;;;;;;;3.15;1.02;;;;;;;33.22;18.66;99904.94;1745403;82;20971;-42
2022/09/06 11:37:08;;;;;;;4.65;1.05;;;;;;;32.51;19.76;99904.44;1745093;81;22111;-44
2022/09/06 11:39:41;;;;;;;2.70;1.02;;;;;;;32.76;20.35;99901.85;1745001;81;21493;-44
2022/09/06 11:42:15;;;;;;;5.28;1.20;;;;;;;33.17;18.08;99891.12;1745694;82;21482;-42
2022/09/06 11:45:02;;;;;;;14.78;1.75;;;;;;;33.63;18.67;99888.59;1741099;81;21015;-44
2022/09/06 11:47:43;;;;;;;2.12;0.95;;;;;;;33.92;17.23;99897.22;1745430;82;21521;-36
2022/09/06 11:50:26;;;;;;;1.55;1.20;;;;;;;34.37;17.32;99897.02;1745223;81;21005;-44
2022/09/06 11:53:11;;;;;;;2.12;1.67;;;;;;;34.35;17.39;99886.86;1734380;82;21476;-47